Time;durP1;ratioP1;P1;durP2;ratioP2;P2;SDS_P1;SDS_P2;PMS_P1;PMS_P2;Temp;Humidity;BMP_temperature;BMP_pressure;BME280_temperature;BME280_humidity;BME280_pressure;Samples;Min_cycle;Max_cycle;Signal;HPM_P1;HPM_P2
2021/09/15 00:01:01;;;;;;;6.50;6.00;;;;;;;17.90;100.00;97868.97;5000123;28;20677;-67
2021/09/15 00:03:30;;;;;;;7.60;7.10;;;;;;;17.92;100.00;97877.63;4996833;28;20720;-66
2021/09/15 00:05:58;;;;;;;5.93;5.53;;;;;;;18.08;100.00;97867.50;4964781;28;20221;-67
2021/09/15 00:08:25;;;;;;;7.40;6.90;;;;;;;18.04;100.00;97872.44;4992113;28;20398;-68
2021/09/15 00:10:54;;;;;;;7.47;6.77;;;;;;;17.91;100.00;97875.19;4997971;28;20288;-67
2021/09/15 00:13:23;;;;;;;7.57;6.93;;;;;;;17.87;100.00;97876.66;4981007;28;20209;-66
2021/09/15 00:15:51;;;;;;;7.73;7.23;;;;;;;17.90;100.00;97877.03;4995521;28;20453;-68
2021/09/15 00:18:19;;;;;;;7.67;7.17;;;;;;;17.86;100.00;97880.38;4995241;28;20240;-67
2021/09/15 00:20:47;;;;;;;7.17;6.67;;;;;;;17.84;100.00;97872.53;4958683;28;20240;-67
2021/09/15 00:23:15;;;;;;;7.47;6.97;;;;;;;17.73;100.00;97871.34;4990669;28;20665;-67
2021/09/15 00:25:43;;;;;;;8.07;6.90;;;;;;;17.70;100.00;97879.81;4995220;28;20201;-68
2021/09/15 00:28:11;;;;;;;7.60;7.00;;;;;;;17.69;100.00;97877.34;5001449;28;20228;-67
2021/09/15 00:30:40;;;;;;;7.50;6.90;;;;;;;17.75;100.00;97877.31;4981652;28;20232;-68
2021/09/15 00:33:08;;;;;;;7.27;6.87;;;;;;;17.74;100.00;97875.66;4998516;28;20209;-68
2021/09/15 00:35:36;;;;;;;7.57;7.07;;;;;;;17.80;100.00;97874.00;4963042;28;20205;-66
2021/09/15 00:38:04;;;;;;;7.50;6.90;;;;;;;17.70;100.00;97877.13;5000508;28;20792;-68
2021/09/15 00:40:32;;;;;;;7.47;6.80;;;;;;;17.67;100.00;97869.50;5001692;28;20235;-67
2021/09/15 00:43:00;;;;;;;7.40;6.83;;;;;;;17.65;100.00;97871.59;5000267;28;20228;-68
2021/09/15 00:45:28;;;;;;;7.17;6.57;;;;;;;17.60;100.00;97874.09;4986437;28;20209;-66
2021/09/15 00:47:57;;;;;;;7.57;7.07;;;;;;;17.64;100.00;97868.09;4996916;28;20430;-68
2021/09/15 00:50:26;;;;;;;7.30;6.70;;;;;;;17.63;100.00;97866.44;4982791;28;20274;-66
2021/09/15 00:52:54;;;;;;;7.53;6.97;;;;;;;17.69;100.00;97866.63;4982198;28;20299;-67
2021/09/15 00:55:22;;;;;;;7.23;6.63;;;;;;;17.59;100.00;97870.56;5003959;28;20215;-67
2021/09/15 00:57:50;;;;;;;7.17;6.67;;;;;;;17.53;100.00;97863.38;4996368;28;20532;-67
2021/09/15 01:00:18;;;;;;;7.53;7.03;;;;;;;17.54;100.00;97859.66;4989939;28;20692;-67
2021/09/15 01:02:46;;;;;;;7.53;6.97;;;;;;;17.56;100.00;97860.28;4993788;28;20460;-68
2021/09/15 01:05:15;;;;;;;7.17;6.67;;;;;;;17.59;100.00;97859.03;4994989;28;20634;-67
2021/09/15 01:07:43;;;;;;;8.00;7.40;;;;;;;17.55;100.00;97850.59;4958120;28;20237;-67
2021/09/15 01:10:11;;;;;;;7.93;7.33;;;;;;;17.52;100.00;97852.91;5001960;28;20573;-67
2021/09/15 01:12:39;;;;;;;7.40;6.80;;;;;;;17.54;100.00;97854.31;4992013;28;20439;-68
2021/09/15 01:15:08;;;;;;;7.57;6.90;;;;;;;17.56;100.00;97857.59;5002796;28;20219;-67
2021/09/15 01:17:36;;;;;;;7.70;7.10;;;;;;;17.58;100.00;97852.03;4980615;28;20229;-66
2021/09/15 01:20:05;;;;;;;7.67;6.97;;;;;;;17.68;100.00;97854.28;4996528;28;20213;-68
2021/09/15 01:22:35;;;;;;;7.10;6.60;;;;;;;17.66;100.00;97851.78;4967586;28;20225;-66
2021/09/15 01:25:04;;;;;;;7.10;6.50;;;;;;;17.58;100.00;97852.03;5003029;28;20695;-68
2021/09/15 01:27:32;;;;;;;7.53;6.70;;;;;;;17.61;100.00;97852.41;4996954;28;20228;-66
2021/09/15 01:30:00;;;;;;;7.43;6.83;;;;;;;17.56;100.00;97851.44;4995332;28;20205;-67
2021/09/15 01:32:27;;;;;;;7.27;6.80;;;;;;;17.51;100.00;97844.03;4983065;28;20661;-67
2021/09/15 01:34:56;;;;;;;7.30;6.80;;;;;;;17.49;100.00;97848.78;4994783;28;21007;-67
2021/09/15 01:37:24;;;;;;;7.57;7.07;;;;;;;17.53;100.00;97852.66;4996515;28;20228;-66
2021/09/15 01:39:53;;;;;;;6.70;6.30;;;;;;;17.56;100.00;97852.22;4962307;28;20209;-68
2021/09/15 01:42:21;;;;;;;7.23;6.53;;;;;;;17.54;100.00;97843.59;5000185;28;20217;-66
2021/09/15 01:44:49;;;;;;;7.70;7.10;;;;;;;17.42;100.00;97839.94;4998660;28;20513;-68
2021/09/15 01:47:19;;;;;;;7.20;6.70;;;;;;;17.40;100.00;97833.97;4982967;28;20232;-68
2021/09/15 01:49:47;;;;;;;7.10;6.60;;;;;;;17.36;100.00;97830.88;4999438;28;20200;-67
2021/09/15 01:52:16;;;;;;;6.33;5.93;;;;;;;17.40;100.00;97829.44;4994117;28;20225;-67
2021/09/15 01:54:45;;;;;;;6.23;5.80;;;;;;;17.45;100.00;97831.47;4962292;28;20311;-69
2021/09/15 01:57:15;;;;;;;7.10;6.60;;;;;;;17.48;100.00;97826.53;4997525;28;20256;-67
2021/09/15 01:59:43;;;;;;;8.03;7.33;;;;;;;17.35;100.00;97819.38;4957986;28;20655;-68
2021/09/15 02:02:12;;;;;;;6.93;6.30;;;;;;;17.31;100.00;97820.00;4999129;28;20225;-66
2021/09/15 02:04:41;;;;;;;6.87;6.33;;;;;;;17.28;100.00;97820.41;4992594;28;20208;-67
2021/09/15 02:07:10;;;;;;;7.23;6.67;;;;;;;17.27;100.00;97818.78;5001146;28;20574;-68
2021/09/15 02:09:38;;;;;;;7.23;6.63;;;;;;;17.23;100.00;97809.53;4995721;28;20731;-67
2021/09/15 02:12:06;;;;;;;7.87;7.10;;;;;;;17.24;100.00;97814.69;4992122;28;20217;-66
2021/09/15 02:14:36;;;;;;;7.27;6.73;;;;;;;17.29;100.00;97812.19;4959000;28;20907;-68
2021/09/15 02:17:04;;;;;;;6.80;6.30;;;;;;;17.28;100.00;97807.88;5001091;28;20347;-68
2021/09/15 02:19:33;;;;;;;7.27;6.77;;;;;;;17.19;100.00;97803.75;4998352;28;20629;-68
2021/09/15 02:22:01;;;;;;;7.00;6.50;;;;;;;17.14;100.00;97811.59;5003406;28;20232;-67
2021/09/15 02:24:29;;;;;;;7.27;6.77;;;;;;;17.09;100.00;97811.41;4997621;28;20450;-67
2021/09/15 02:26:57;;;;;;;6.87;6.37;;;;;;;17.02;100.00;97812.25;5003026;28;20228;-68
2021/09/15 02:29:27;;;;;;;7.50;7.00;;;;;;;16.99;100.00;97811.84;4968264;28;20212;-66
2021/09/15 02:31:56;;;;;;;7.90;7.23;;;;;;;17.03;100.00;97800.53;4979708;28;20205;-66
2021/09/15 02:34:24;;;;;;;7.73;7.13;;;;;;;16.99;100.00;97804.66;5002652;28;20730;-68
2021/09/15 02:36:52;;;;;;;8.50;7.70;;;;;;;17.00;100.00;97803.63;5001153;28;20645;-67
2021/09/15 02:39:20;;;;;;;7.83;7.20;;;;;;;16.96;100.00;97805.06;4997265;28;20210;-68
2021/09/15 02:41:48;;;;;;;8.37;7.50;;;;;;;16.90;100.00;97797.88;4988057;28;20440;-66
2021/09/15 02:44:16;;;;;;;7.90;7.30;;;;;;;16.94;100.00;97809.78;4994122;28;20407;-68
2021/09/15 02:46:44;;;;;;;7.33;6.83;;;;;;;16.91;100.00;97812.88;4960233;28;20217;-66
2021/09/15 02:49:13;;;;;;;7.67;7.07;;;;;;;16.91;100.00;97805.66;4995008;28;20439;-67
2021/09/15 02:51:41;;;;;;;8.47;7.87;;;;;;;16.98;100.00;97811.03;4994342;28;20232;-67
2021/09/15 02:54:09;;;;;;;7.33;6.83;;;;;;;16.93;100.00;97808.16;4979381;28;20962;-68
2021/09/15 02:56:37;;;;;;;7.77;7.20;;;;;;;16.89;100.00;97807.72;5000436;28;20248;-67
2021/09/15 02:59:05;;;;;;;7.77;7.27;;;;;;;16.90;100.00;97798.66;4993662;28;20439;-68
2021/09/15 03:01:33;;;;;;;7.67;7.03;;;;;;;16.86;100.00;97791.28;4961373;28;20228;-67
2021/09/15 03:04:01;;;;;;;7.60;7.07;;;;;;;16.88;100.00;97791.91;4994640;28;20240;-68
2021/09/15 03:06:30;;;;;;;7.50;7.00;;;;;;;16.89;100.00;97780.97;4999165;28;20204;-66
2021/09/15 03:08:58;;;;;;;7.47;6.97;;;;;;;16.89;100.00;97782.84;4998074;28;20437;-67
2021/09/15 03:11:26;;;;;;;8.07;7.47;;;;;;;16.83;100.00;97783.66;4999923;28;20204;-68
2021/09/15 03:13:54;;;;;;;7.13;6.63;;;;;;;16.80;100.00;97771.53;4997156;28;20560;-66
2021/09/15 03:16:24;;;;;;;8.47;7.87;;;;;;;16.77;100.00;97780.78;4964528;28;20489;-68
2021/09/15 03:18:52;;;;;;;7.80;7.20;;;;;;;16.83;100.00;97781.81;4993543;28;20617;-66
2021/09/15 03:21:20;;;;;;;7.07;6.57;;;;;;;16.96;100.00;97772.94;4997128;28;20208;-68
2021/09/15 03:23:50;;;;;;;8.37;7.63;;;;;;;17.00;100.00;97773.34;5002858;28;20603;-66
2021/09/15 03:26:18;;;;;;;7.23;6.73;;;;;;;16.93;100.00;97770.69;5001264;28;20209;-68
2021/09/15 03:28:46;;;;;;;8.20;7.40;;;;;;;16.90;100.00;97779.13;5003936;28;20236;-66
2021/09/15 03:31:14;;;;;;;7.73;7.23;;;;;;;16.93;100.00;97773.34;4970400;28;21591;-67
2021/09/15 03:33:42;;;;;;;7.53;7.03;;;;;;;16.97;100.00;97781.75;5000547;28;20228;-66
2021/09/15 03:36:10;;;;;;;7.77;7.17;;;;;;;16.92;100.00;97777.88;5001596;28;20445;-68
2021/09/15 03:38:38;;;;;;;7.67;6.97;;;;;;;16.97;100.00;97773.72;5002060;28;20232;-66
2021/09/15 03:41:07;;;;;;;7.37;6.80;;;;;;;16.95;100.00;97778.47;4996925;28;20337;-68
2021/09/15 03:43:35;;;;;;;7.60;7.00;;;;;;;16.85;100.00;97771.72;5000630;28;20239;-67
2021/09/15 03:46:03;;;;;;;7.63;6.93;;;;;;;16.81;100.00;97767.81;4995375;28;20529;-67
2021/09/15 03:48:31;;;;;;;7.47;6.73;;;;;;;16.88;100.00;97770.50;4967621;28;20231;-67
2021/09/15 03:50:59;;;;;;;7.80;7.10;;;;;;;16.92;100.00;97775.19;4993370;28;20437;-67
2021/09/15 03:53:27;;;;;;;7.63;6.93;;;;;;;16.91;100.00;97772.75;4995076;28;20213;-68
2021/09/15 03:55:55;;;;;;;8.00;7.37;;;;;;;16.84;100.00;97763.88;4991681;28;20563;-66
2021/09/15 03:58:24;;;;;;;8.00;7.40;;;;;;;16.83;100.00;97764.91;5000779;28;20388;-67
2021/09/15 04:00:52;;;;;;;7.07;6.47;;;;;;;16.71;100.00;97762.91;4983560;28;20457;-67
2021/09/15 04:03:21;;;;;;;7.97;6.97;;;;;;;16.78;100.00;97762.88;4961200;28;20705;-67
2021/09/15 04:05:49;;;;;;;7.67;6.83;;;;;;;16.77;100.00;97764.72;4992047;28;20589;-66
2021/09/15 04:08:17;;;;;;;7.27;6.77;;;;;;;16.82;100.00;97764.13;4953151;28;20759;-68
2021/09/15 04:10:47;;;;;;;7.43;6.93;;;;;;;16.77;100.00;97767.41;5000395;28;20209;-67
2021/09/15 04:13:15;;;;;;;7.50;7.00;;;;;;;16.87;100.00;97774.19;4987153;28;22640;-68
2021/09/15 04:15:45;;;;;;;6.93;6.33;;;;;;;16.76;100.00;97759.59;5000589;28;20231;-68
2021/09/15 04:18:13;;;;;;;7.70;7.00;;;;;;;16.71;100.00;97757.53;4992794;28;20232;-68
2021/09/15 04:20:41;;;;;;;7.90;7.30;;;;;;;16.71;100.00;97754.88;4998982;28;20300;-68
2021/09/15 04:23:13;;;;;;;8.90;8.10;;;;;;;16.67;100.00;97755.47;4960513;28;20600;-68
2021/09/15 04:31:21;;;;;;;7.87;7.27;;;;;;;16.82;100.00;97765.94;4997925;28;20213;-67
2021/09/15 04:33:49;;;;;;;8.20;7.60;;;;;;;16.78;100.00;97769.03;4993897;28;20216;-66
2021/09/15 04:36:18;;;;;;;9.70;8.90;;;;;;;16.70;100.00;97766.59;4953411;28;20232;-67
2021/09/15 04:38:46;;;;;;;7.63;7.03;;;;;;;16.79;100.00;97765.34;4997908;28;21052;-69
2021/09/15 04:41:15;;;;;;;8.20;7.47;;;;;;;16.73;100.00;97760.84;4990013;28;20208;-69
2021/09/15 04:43:43;;;;;;;7.80;7.10;;;;;;;16.68;100.00;97757.97;4998138;28;20239;-69
2021/09/15 04:46:11;;;;;;;8.27;7.67;;;;;;;16.66;100.00;97756.50;4987077;28;20287;-69
2021/09/15 04:48:40;;;;;;;8.30;7.70;;;;;;;16.59;100.00;97751.19;4994971;28;20237;-69
2021/09/15 04:51:08;;;;;;;8.30;7.60;;;;;;;16.58;100.00;97760.25;4997991;28;20208;-69
2021/09/15 04:53:36;;;;;;;8.30;7.70;;;;;;;16.57;100.00;97761.28;4962926;28;20239;-70
2021/09/15 04:56:05;;;;;;;8.03;7.33;;;;;;;16.59;100.00;97759.22;4995927;28;20263;-69
2021/09/15 04:58:33;;;;;;;9.33;8.00;;;;;;;16.54;100.00;97753.69;4980975;28;20316;-68
2021/09/15 05:01:01;;;;;;;8.33;7.63;;;;;;;16.66;100.00;97759.19;4980585;28;20213;-69
2021/09/15 05:03:29;;;;;;;7.80;7.13;;;;;;;16.75;100.00;97757.97;4985645;28;20213;-69
2021/09/15 05:06:03;;;;;;;10.37;8.60;;;;;;;16.75;100.00;97758.75;4992970;28;20485;-68
2021/09/15 05:08:32;;;;;;;8.57;7.97;;;;;;;16.76;100.00;97759.59;4966232;28;20265;-68
2021/09/15 05:11:00;;;;;;;9.07;8.47;;;;;;;16.72;100.00;97761.88;4981479;28;20520;-68
2021/09/15 05:13:28;;;;;;;9.00;8.27;;;;;;;16.77;100.00;97762.06;4994440;28;20208;-69
2021/09/15 05:15:56;;;;;;;8.83;8.03;;;;;;;16.82;100.00;97764.13;4973069;28;20454;-69
2021/09/15 05:18:26;;;;;;;9.60;8.73;;;;;;;16.75;100.00;97766.00;4987800;28;20235;-69
2021/09/15 05:20:54;;;;;;;9.10;8.17;;;;;;;16.87;100.00;97776.88;5002110;28;20278;-68
2021/09/15 05:23:23;;;;;;;8.90;8.00;;;;;;;16.93;100.00;97773.34;4993042;28;20212;-69
2021/09/15 05:25:51;;;;;;;8.87;8.17;;;;;;;16.92;100.00;97775.19;4983320;28;20335;-69
2021/09/15 05:28:19;;;;;;;8.17;7.57;;;;;;;16.81;100.00;97775.00;4992740;28;20237;-69
2021/09/15 05:30:49;;;;;;;8.90;8.20;;;;;;;16.78;100.00;97774.41;4990306;28;20212;-69
2021/09/15 05:33:17;;;;;;;8.10;7.40;;;;;;;16.88;100.00;97779.31;4979489;28;20820;-68
2021/09/15 05:35:45;;;;;;;8.20;7.43;;;;;;;16.93;100.00;97781.38;4998685;28;20662;-69
2021/09/15 05:38:13;;;;;;;8.87;7.20;;;;;;;16.88;100.00;97778.53;4991466;28;20224;-70
2021/09/15 05:40:42;;;;;;;8.23;7.63;;;;;;;16.93;100.00;97790.22;4963387;28;20217;-70
2021/09/15 05:43:10;;;;;;;7.53;6.77;;;;;;;16.93;100.00;97792.91;4998645;28;20213;-69
2021/09/15 05:45:38;;;;;;;8.53;7.93;;;;;;;16.89;100.00;97793.53;4988120;28;20224;-68
2021/09/15 05:48:06;;;;;;;9.30;8.47;;;;;;;16.90;100.00;97793.31;4986795;28;20232;-71
2021/09/15 05:50:34;;;;;;;8.67;7.97;;;;;;;16.85;100.00;97801.16;4998147;28;20205;-69
2021/09/15 05:53:02;;;;;;;10.63;8.03;;;;;;;17.06;100.00;97793.94;4996895;28;20677;-69
2021/09/15 05:55:30;;;;;;;8.70;8.00;;;;;;;17.02;100.00;97801.56;4962214;28;21082;-68
2021/09/15 05:57:59;;;;;;;8.57;7.90;;;;;;;17.07;100.00;97800.94;4996028;28;20263;-69
2021/09/15 06:00:27;;;;;;;8.03;7.30;;;;;;;17.05;100.00;97795.78;4995738;28;20858;-69
2021/09/15 06:02:56;;;;;;;8.97;8.20;;;;;;;17.03;100.00;97800.53;4973491;28;20673;-69
2021/09/15 06:05:24;;;;;;;8.73;7.40;;;;;;;17.09;100.00;97798.88;4996238;28;20220;-68
2021/09/15 06:07:52;;;;;;;8.70;8.00;;;;;;;16.94;100.00;97796.41;4999087;28;20237;-68
2021/09/15 06:10:20;;;;;;;8.50;7.67;;;;;;;16.99;100.00;97799.31;4980435;28;20327;-68
2021/09/15 06:12:48;;;;;;;8.50;7.80;;;;;;;16.91;100.00;97800.31;4948194;28;20227;-69
2021/09/15 06:15:18;;;;;;;9.13;8.43;;;;;;;17.05;100.00;97800.31;4998043;28;20204;-68
2021/09/15 06:17:46;;;;;;;8.90;7.77;;;;;;;16.93;100.00;97797.44;4980469;28;20232;-69
2021/09/15 06:20:14;;;;;;;7.80;7.27;;;;;;;16.94;100.00;97801.75;4998785;28;20213;-70
2021/09/15 06:22:42;;;;;;;8.80;8.20;;;;;;;16.84;100.00;97790.66;4995738;28;20215;-70
2021/09/15 06:25:11;;;;;;;9.23;8.37;;;;;;;16.84;100.00;97791.47;4987907;28;20730;-70
2021/09/15 06:27:41;;;;;;;8.73;7.83;;;;;;;16.76;100.00;97795.19;4967550;28;20252;-69
2021/09/15 06:30:11;;;;;;;8.67;7.97;;;;;;;16.96;100.00;97791.66;4995443;28;20283;-69
2021/09/15 06:32:41;;;;;;;9.23;8.33;;;;;;;17.03;100.00;97794.34;4996435;28;20312;-69
2021/09/15 06:35:11;;;;;;;8.83;8.13;;;;;;;16.98;100.00;97789.63;4985627;28;20205;-70
2021/09/15 06:37:40;;;;;;;9.23;8.30;;;;;;;17.05;100.00;97787.75;4995035;28;20547;-69
2021/09/15 06:40:10;;;;;;;8.93;8.17;;;;;;;17.12;100.00;97789.56;4987399;28;20353;-70
2021/09/15 06:42:38;;;;;;;8.97;8.27;;;;;;;17.13;100.00;97788.53;4957870;28;20506;-69
2021/09/15 06:45:07;;;;;;;8.60;7.73;;;;;;;17.24;100.00;97795.94;4993387;28;20562;-71
2021/09/15 06:47:42;;;;;;;8.80;8.00;;;;;;;17.29;100.00;97789.94;4990818;28;20235;-68
2021/09/15 06:50:12;;;;;;;8.87;8.07;;;;;;;17.40;100.00;97793.81;4983676;28;20215;-71
2021/09/15 06:52:40;;;;;;;8.40;7.70;;;;;;;17.44;100.00;97800.38;4991333;28;20882;-68
2021/09/15 06:55:08;;;;;;;9.47;8.43;;;;;;;17.39;100.00;97790.28;4994950;28;21475;-69
2021/09/15 06:57:36;;;;;;;9.20;8.27;;;;;;;17.32;100.00;97790.34;4950919;28;20742;-70
2021/09/15 07:00:07;;;;;;;9.67;8.77;;;;;;;17.35;100.00;97783.72;4997702;28;20236;-69
2021/09/15 07:02:35;;;;;;;9.63;8.73;;;;;;;17.38;100.00;97785.16;4995727;28;20209;-68
2021/09/15 07:05:04;;;;;;;9.23;8.43;;;;;;;17.49;100.00;97781.81;4988923;28;20727;-69
2021/09/15 07:07:33;;;;;;;9.50;8.60;;;;;;;17.49;100.00;97782.63;4995691;28;20232;-69
2021/09/15 07:10:02;;;;;;;8.07;7.57;;;;;;;17.55;100.00;97782.81;4999047;28;20212;-68
2021/09/15 07:12:30;;;;;;;8.83;8.13;;;;;;;17.60;100.00;97796.38;4984842;28;20231;-68
2021/09/15 07:14:58;;;;;;;7.77;7.23;;;;;;;17.60;100.00;97799.06;4969390;28;20213;-67
2021/09/15 07:17:26;;;;;;;8.77;8.07;;;;;;;17.67;100.00;97801.72;4994051;28;20232;-69
2021/09/15 07:19:54;;;;;;;8.33;7.53;;;;;;;17.70;100.00;97804.78;4987402;28;20692;-69
2021/09/15 07:22:23;;;;;;;8.77;8.17;;;;;;;17.79;100.00;97808.03;4999688;28;20216;-68
2021/09/15 07:24:52;;;;;;;8.87;8.17;;;;;;;17.73;100.00;97806.22;5000682;28;20236;-69
2021/09/15 07:27:20;;;;;;;7.43;6.83;;;;;;;17.88;100.00;97806.72;4998244;28;20232;-71
2021/09/15 07:29:48;;;;;;;8.60;7.93;;;;;;;17.97;100.00;97806.47;4959476;28;20376;-70
2021/09/15 07:32:27;;;;;;;9.20;8.27;;;;;;;17.96;100.00;97802.13;4994306;28;20344;-69
2021/09/15 07:34:55;;;;;;;8.93;8.13;;;;;;;18.04;100.00;97796.56;4984174;28;20209;-67
2021/09/15 07:37:24;;;;;;;8.70;7.90;;;;;;;18.06;100.00;97807.91;4999938;28;20221;-69
2021/09/15 07:39:53;;;;;;;9.27;8.10;;;;;;;18.16;100.00;97815.44;5002485;28;20208;-70
2021/09/15 07:42:21;;;;;;;9.10;8.20;;;;;;;18.33;100.00;97810.34;4991376;28;20601;-69
2021/09/15 07:44:49;;;;;;;8.33;7.53;;;;;;;18.41;100.00;97818.16;4964679;28;20220;-68
2021/09/15 07:47:17;;;;;;;8.70;8.00;;;;;;;18.54;100.00;97824.44;4997066;28;20232;-69
2021/09/15 07:49:45;;;;;;;9.17;8.30;;;;;;;18.76;100.00;97819.50;4999202;28;20212;-69
2021/09/15 07:52:13;;;;;;;9.17;8.50;;;;;;;18.85;100.00;97825.41;4984208;28;20213;-68
2021/09/15 07:54:42;;;;;;;8.97;8.27;;;;;;;18.86;100.00;97825.16;4998421;28;20886;-68
2021/09/15 07:57:10;;;;;;;8.93;8.23;;;;;;;18.83;100.00;97835.53;5002680;28;20728;-70
2021/09/15 07:59:38;;;;;;;8.63;7.93;;;;;;;18.87;100.00;97840.22;4965827;28;21010;-67
2021/09/15 08:02:11;;;;;;;8.53;7.83;;;;;;;18.80;100.00;97840.31;5000505;28;20889;-69
2021/09/15 08:04:39;;;;;;;8.27;7.57;;;;;;;18.83;100.00;97843.59;4997783;28;20217;-69
2021/09/15 08:07:07;;;;;;;8.17;7.57;;;;;;;18.89;100.00;97848.88;4987629;28;20225;-69
2021/09/15 08:09:35;;;;;;;8.67;7.90;;;;;;;18.98;100.00;97841.41;4997882;28;20339;-69
2021/09/15 08:12:05;;;;;;;9.20;8.40;;;;;;;19.14;100.00;97845.38;4974630;28;20685;-68
2021/09/15 08:14:34;;;;;;;8.70;7.90;;;;;;;19.18;100.00;97854.63;4996942;28;20205;-69
2021/09/15 08:17:02;;;;;;;8.97;8.23;;;;;;;19.06;100.00;97854.53;4971917;28;20881;-69
2021/09/15 08:19:30;;;;;;;9.57;8.80;;;;;;;19.00;100.00;97857.31;4987855;28;20565;-70
2021/09/15 08:21:58;;;;;;;8.77;8.17;;;;;;;18.98;100.00;97859.38;4946062;28;20213;-70
2021/09/15 08:24:26;;;;;;;9.03;8.17;;;;;;;18.97;100.00;97868.44;4994181;28;20731;-70
2021/09/15 08:26:54;;;;;;;10.40;9.60;;;;;;;18.98;100.00;97856.69;4989492;28;20237;-69
2021/09/15 08:29:23;;;;;;;9.40;8.60;;;;;;;18.98;100.00;97860.19;5000608;28;20208;-69
2021/09/15 08:31:51;;;;;;;10.53;9.53;;;;;;;18.92;100.00;97866.41;4999649;28;20377;-69
2021/09/15 08:34:19;;;;;;;10.43;9.53;;;;;;;18.95;100.00;97865.97;4995981;28;20220;-68
2021/09/15 08:36:47;;;;;;;10.57;9.57;;;;;;;19.03;100.00;97856.84;4957701;28;20322;-68
2021/09/15 08:39:15;;;;;;;9.10;8.20;;;;;;;19.17;100.00;97854.84;5000586;28;20599;-68
2021/09/15 08:41:43;;;;;;;10.33;9.53;;;;;;;19.23;100.00;97857.44;4986134;28;20717;-68
2021/09/15 08:44:12;;;;;;;10.37;9.40;;;;;;;19.34;100.00;97853.19;5005110;28;20211;-67
2021/09/15 08:46:43;;;;;;;9.70;8.80;;;;;;;19.30;100.00;97840.44;4996231;28;20420;-68
2021/09/15 08:49:11;;;;;;;10.07;9.37;;;;;;;19.29;100.00;97849.53;4998023;28;21302;-68
2021/09/15 08:51:39;;;;;;;11.27;10.33;;;;;;;19.37;100.00;97839.31;4956160;28;20828;-67
2021/09/15 08:54:07;;;;;;;10.37;9.57;;;;;;;19.47;100.00;97851.38;4997561;28;20701;-68
2021/09/15 08:56:35;;;;;;;9.83;9.00;;;;;;;19.66;100.00;97844.97;4992700;28;20205;-69
2021/09/15 08:59:03;;;;;;;10.53;9.53;;;;;;;19.81;100.00;97849.94;4987168;28;20240;-68
2021/09/15 09:01:31;;;;;;;9.63;8.87;;;;;;;19.91;100.00;97849.44;4994929;28;20212;-68
2021/09/15 09:04:00;;;;;;;11.53;10.30;;;;;;;19.87;100.00;97850.06;4996187;28;20323;-68
2021/09/15 09:06:32;;;;;;;10.97;9.97;;;;;;;20.02;100.00;97836.25;4991134;28;20225;-69
2021/09/15 09:09:03;;;;;;;11.43;10.43;;;;;;;19.93;100.00;97838.44;4963468;28;20744;-68
2021/09/15 09:11:33;;;;;;;10.63;9.83;;;;;;;19.88;100.00;97843.66;4995757;28;20296;-68
2021/09/15 09:14:02;;;;;;;11.63;10.13;;;;;;;19.94;100.00;97842.75;4984842;28;20219;-68
2021/09/15 09:16:42;;;;;;;10.20;9.43;;;;;;;19.98;100.00;97845.81;4994661;28;20197;-69
2021/09/15 09:19:13;;;;;;;11.30;10.30;;;;;;;19.93;100.00;97850.03;5000005;28;20231;-69
2021/09/15 09:21:42;;;;;;;10.47;9.67;;;;;;;19.89;100.00;97843.44;4991497;28;20442;-68
2021/09/15 09:24:12;;;;;;;10.43;9.43;;;;;;;19.80;100.00;97834.03;4964425;28;20239;-69
2021/09/15 09:26:48;;;;;;;10.60;9.80;;;;;;;19.70;100.00;97839.13;4995264;28;20477;-68
2021/09/15 09:29:21;;;;;;;10.20;9.40;;;;;;;19.84;100.00;97845.16;4981033;28;20298;-69
2021/09/15 09:32:04;;;;;;;10.03;9.23;;;;;;;19.71;100.00;97844.28;4996572;28;20417;-69
2021/09/15 09:34:41;;;;;;;10.17;9.10;;;;;;;19.77;100.00;97850.59;4993640;28;20212;-69
2021/09/15 09:37:13;;;;;;;10.37;9.47;;;;;;;19.82;100.00;97848.06;5001888;28;20200;-68
2021/09/15 09:39:42;;;;;;;10.50;9.60;;;;;;;19.94;100.00;97840.06;4956496;28;20224;-68
2021/09/15 09:42:32;;;;;;;10.53;9.63;;;;;;;20.01;100.00;97831.91;4997666;28;20220;-69
2021/09/15 09:45:15;;;;;;;10.53;9.73;;;;;;;19.90;100.00;97834.34;4984564;28;20547;-70
2021/09/15 09:47:45;;;;;;;10.70;9.80;;;;;;;19.75;100.00;97823.13;4993762;28;20469;-70
2021/09/15 09:50:16;;;;;;;10.97;10.03;;;;;;;19.65;100.00;97821.81;4993504;28;20200;-70
2021/09/15 09:52:55;;;;;;;11.50;10.50;;;;;;;19.71;100.00;97824.63;4991544;28;20608;-70
2021/09/15 09:55:28;;;;;;;10.90;9.90;;;;;;;19.62;100.00;97834.88;4956499;28;20303;-69
2021/09/15 09:57:56;;;;;;;11.20;10.30;;;;;;;19.58;100.00;97841.75;5000921;28;20213;-69
2021/09/15 10:00:25;;;;;;;11.00;10.20;;;;;;;19.47;100.00;97838.78;4998244;28;20671;-68
2021/09/15 10:02:53;;;;;;;9.90;9.17;;;;;;;19.43;100.00;97826.84;4986856;28;20517;-69
2021/09/15 10:05:23;;;;;;;9.70;8.97;;;;;;;19.37;100.00;97833.13;4999252;28;20205;-69
2021/09/15 10:07:52;;;;;;;10.33;9.43;;;;;;;19.34;100.00;97853.19;4994027;28;20629;-70
2021/09/15 10:10:21;;;;;;;10.13;9.23;;;;;;;19.31;100.00;97858.19;4997085;28;20205;-69
2021/09/15 10:12:53;;;;;;;9.90;9.03;;;;;;;19.32;100.00;97855.28;4971592;28;20212;-70
2021/09/15 10:15:21;;;;;;;9.67;8.87;;;;;;;19.39;100.00;97847.16;5003017;28;20302;-71
2021/09/15 10:17:51;;;;;;;9.70;8.90;;;;;;;19.48;100.00;97839.59;4980843;28;20221;-70
2021/09/15 10:20:25;;;;;;;10.47;9.57;;;;;;;19.53;100.00;97837.06;5002781;28;20204;-70
2021/09/15 10:22:53;;;;;;;10.60;9.70;;;;;;;19.56;100.00;97849.22;4992529;28;20263;-67
2021/09/15 10:25:36;;;;;;;9.30;8.57;;;;;;;19.82;100.00;97840.00;4995000;28;20291;-69
2021/09/15 10:28:05;;;;;;;9.83;8.97;;;;;;;19.94;100.00;97830.16;4925095;28;20229;-70
2021/09/15 10:30:47;;;;;;;11.23;10.33;;;;;;;19.98;100.00;97830.50;4997388;28;20208;-70
2021/09/15 10:33:46;;;;;;;10.80;9.80;;;;;;;20.10;100.00;97827.84;4989206;28;20215;-70
2021/09/15 10:36:43;;;;;;;10.50;9.57;;;;;;;20.27;100.00;97837.94;4980249;28;23308;-70
2021/09/15 10:39:11;;;;;;;10.77;9.07;;;;;;;20.17;100.00;97838.50;5000663;28;20440;-71
2021/09/15 10:41:40;;;;;;;8.63;7.93;;;;;;;20.32;100.00;97832.69;4993327;28;20217;-69
2021/09/15 10:44:09;;;;;;;10.73;9.80;;;;;;;20.43;100.00;97841.81;4975858;28;20231;-68
2021/09/15 10:46:37;;;;;;;9.80;9.00;;;;;;;20.27;100.00;97844.16;5001794;28;20209;-70
2021/09/15 10:49:45;;;;;;;9.70;8.90;;;;;;;20.21;100.00;97837.81;4997868;28;20232;-69
2021/09/15 10:52:31;;;;;;;37.23;33.63;;;;;;;20.19;100.00;97834.53;4995873;28;20288;-70
2021/09/15 10:55:00;;;;;;;10.70;9.63;;;;;;;20.20;100.00;97841.53;4998976;28;20514;-71
2021/09/15 10:57:33;;;;;;;9.63;8.83;;;;;;;20.35;100.00;97846.50;4988454;28;20228;-72
2021/09/15 11:00:04;;;;;;;9.33;8.63;;;;;;;20.56;100.00;97846.16;4966438;28;20217;-71
2021/09/15 11:02:33;;;;;;;10.73;9.87;;;;;;;20.41;100.00;97846.63;5002717;28;20570;-69
2021/09/15 11:05:35;;;;;;;9.00;8.10;;;;;;;20.38;100.00;97850.59;4999136;28;20232;-69
2021/09/15 11:08:05;;;;;;;8.30;7.63;;;;;;;20.49;100.00;97860.56;4996116;28;20283;-68
2021/09/15 11:10:42;;;;;;;8.87;8.17;;;;;;;20.53;100.00;97855.56;5006279;28;20627;-68
2021/09/15 11:13:11;;;;;;;9.03;8.13;;;;;;;20.71;100.00;97849.25;4984641;28;20363;-70
2021/09/15 11:15:41;;;;;;;8.60;7.90;;;;;;;20.70;100.00;97854.84;4964373;28;20213;-67
2021/09/15 11:18:16;;;;;;;8.70;8.10;;;;;;;20.61;100.00;97854.38;4999912;28;20538;-70
2021/09/15 11:20:44;;;;;;;8.87;8.07;;;;;;;20.42;100.00;97853.63;5004561;28;20277;-70
2021/09/15 11:23:14;;;;;;;8.60;7.90;;;;;;;20.45;100.00;97847.78;5000108;28;20323;-69
2021/09/15 11:25:42;;;;;;;7.67;7.17;;;;;;;20.55;100.00;97853.44;5002076;28;20232;-70
2021/09/15 11:28:11;;;;;;;8.47;7.60;;;;;;;20.45;100.00;97848.63;4999013;28;20609;-70
2021/09/15 11:30:41;;;;;;;10.10;7.57;;;;;;;20.32;100.00;97852.34;4956820;28;20845;-69
2021/09/15 11:33:10;;;;;;;8.67;7.97;;;;;;;20.28;100.00;97837.72;5005033;28;20678;-69
2021/09/15 11:35:40;;;;;;;9.00;8.20;;;;;;;20.23;100.00;97843.78;5000052;28;20342;-69
2021/09/15 11:38:09;;;;;;;8.70;7.87;;;;;;;20.30;100.00;97848.25;5003629;28;20597;-70
2021/09/15 11:40:38;;;;;;;8.87;8.07;;;;;;;20.29;100.00;97847.41;4997381;28;20715;-69